Time;durP1;ratioP1;P1;durP2;ratioP2;P2;SDS_P1;SDS_P2;PMS_P1;PMS_P2;Temp;Humidity;BMP_temperature;BMP_pressure;BME280_temperature;BME280_humidity;BME280_pressure;Samples;Min_cycle;Max_cycle;Signal;HPM_P1;HPM_P2
2021/09/26 00:00:11;;;;;;;3.50;3.20;;;;;;;22.00;84.21;97644.34;5021076;28;20506;-63
2021/09/26 00:02:38;;;;;;;3.40;3.20;;;;;;;21.98;84.29;97641.75;5002897;28;20565;-62
2021/09/26 00:05:06;;;;;;;3.83;3.00;;;;;;;22.00;84.19;97652.03;5027965;28;20658;-65
2021/09/26 00:07:32;;;;;;;3.73;2.93;;;;;;;21.98;84.05;97644.31;5021648;28;20204;-64
2021/09/26 00:09:59;;;;;;;3.47;3.20;;;;;;;21.91;84.28;97631.28;5042724;28;20505;-63
2021/09/26 00:12:26;;;;;;;3.10;2.90;;;;;;;21.99;84.22;97647.75;5007528;28;20705;-63
2021/09/26 00:14:53;;;;;;;3.30;3.00;;;;;;;21.98;84.18;97646.88;5023607;28;20209;-63
2021/09/26 00:17:19;;;;;;;3.80;3.50;;;;;;;21.99;84.30;97653.72;5036610;28;20813;-63
2021/09/26 00:19:46;;;;;;;3.40;3.10;;;;;;;21.99;84.48;97655.44;5028492;28;20201;-60
2021/09/26 00:22:13;;;;;;;3.30;3.10;;;;;;;21.98;84.62;97646.00;5035449;28;20251;-62
2021/09/26 00:24:40;;;;;;;3.40;3.10;;;;;;;21.98;84.25;97651.97;5013189;28;20678;-62
2021/09/26 00:27:09;;;;;;;3.40;3.10;;;;;;;21.99;84.27;97648.59;5017358;28;20196;-63
2021/09/26 00:29:37;;;;;;;3.10;2.90;;;;;;;21.92;84.36;97640.69;5013594;28;20609;-62
2021/09/26 00:32:05;;;;;;;3.30;3.00;;;;;;;21.90;84.39;97638.09;5038034;28;20208;-65
2021/09/26 00:34:32;;;;;;;3.50;3.30;;;;;;;21.98;84.57;97644.31;5037131;28;20188;-63
2021/09/26 00:36:58;;;;;;;3.60;3.30;;;;;;;21.98;84.51;97640.88;5029390;28;20534;-63
2021/09/26 00:39:25;;;;;;;3.70;3.40;;;;;;;21.91;84.46;97626.16;5044950;28;20205;-62
2021/09/26 00:41:52;;;;;;;3.03;2.83;;;;;;;21.98;84.57;97643.44;5029121;28;20283;-63
2021/09/26 00:44:18;;;;;;;3.50;3.23;;;;;;;21.98;84.42;97643.44;5014841;28;20708;-63
2021/09/26 00:46:45;;;;;;;3.30;3.10;;;;;;;21.97;84.45;97640.03;5035860;28;20196;-62
2021/09/26 00:49:12;;;;;;;3.80;3.50;;;;;;;21.99;84.54;97645.19;5024388;28;20250;-62
2021/09/26 00:51:39;;;;;;;3.20;3.00;;;;;;;21.97;84.39;97645.16;5018233;28;20666;-64
2021/09/26 00:54:05;;;;;;;3.73;3.43;;;;;;;21.98;84.39;97648.53;5024641;28;20223;-63
2021/09/26 00:56:32;;;;;;;3.60;3.30;;;;;;;21.98;84.65;97651.09;5024733;28;20627;-63
2021/09/26 00:58:59;;;;;;;3.43;3.23;;;;;;;21.97;84.73;97647.69;5034056;28;20275;-63
2021/09/26 01:01:25;;;;;;;3.50;3.20;;;;;;;21.82;84.33;97616.53;5037086;28;20208;-62
2021/09/26 01:03:52;;;;;;;3.83;3.23;;;;;;;21.91;84.47;97633.84;5019419;28;20228;-63
2021/09/26 01:06:45;;;;;;;3.27;3.07;;;;;;;21.98;84.61;97641.75;5014889;28;20197;-64
2021/09/26 01:09:22;;;;;;;3.30;3.10;;;;;;;21.99;84.51;97645.19;5025824;28;20220;-62
2021/09/26 01:11:58;;;;;;;3.50;3.20;;;;;;;21.98;84.51;97646.00;5048082;28;20232;-62
2021/09/26 01:14:27;;;;;;;3.40;3.10;;;;;;;21.98;84.39;97646.00;5041489;28;20248;-63
2021/09/26 01:16:59;;;;;;;3.30;3.10;;;;;;;21.98;84.62;97649.44;5037718;28;20635;-63
2021/09/26 01:19:47;;;;;;;3.37;3.17;;;;;;;21.99;84.64;97645.19;5042288;28;20245;-63
2021/09/26 01:22:20;;;;;;;3.47;3.23;;;;;;;21.97;84.58;97644.25;5031634;28;20205;-63
2021/09/26 01:25:07;;;;;;;3.60;3.30;;;;;;;21.97;84.41;97657.94;5032633;28;20228;-63
2021/09/26 01:27:40;;;;;;;3.40;3.10;;;;;;;21.98;84.52;97666.47;5022906;28;20286;-62
2021/09/26 01:30:14;;;;;;;3.30;3.10;;;;;;;21.97;84.58;97664.75;5043851;28;20242;-64
2021/09/26 01:32:42;;;;;;;3.40;3.10;;;;;;;21.97;84.43;97664.75;5029043;28;20285;-63
2021/09/26 01:35:09;;;;;;;3.77;3.47;;;;;;;21.97;84.57;97660.50;5024409;28;20662;-64
2021/09/26 01:37:54;;;;;;;3.53;3.23;;;;;;;21.98;84.38;97661.34;5024777;28;20373;-63
2021/09/26 01:40:31;;;;;;;3.10;2.90;;;;;;;21.97;84.32;97659.63;5018629;28;20213;-64
2021/09/26 01:43:06;;;;;;;3.37;3.17;;;;;;;21.97;84.64;97651.94;5014304;28;20759;-62
2021/09/26 01:45:48;;;;;;;3.33;3.07;;;;;;;21.90;84.61;97640.66;5016637;28;20205;-63
2021/09/26 01:48:18;;;;;;;3.70;3.40;;;;;;;21.90;84.67;97645.75;5038083;28;20196;-63
2021/09/26 01:50:47;;;;;;;3.93;3.63;;;;;;;21.96;84.71;97657.88;5035089;28;20252;-63
2021/09/26 01:53:13;;;;;;;4.80;3.57;;;;;;;21.97;84.63;97657.06;5030098;28;20710;-60
2021/09/26 01:55:40;;;;;;;3.73;3.43;;;;;;;21.96;84.59;97661.28;5027169;28;20673;-64
2021/09/26 01:58:07;;;;;;;3.67;3.37;;;;;;;21.96;84.59;97661.28;5030909;28;20210;-65
2021/09/26 02:00:33;;;;;;;3.73;3.43;;;;;;;21.96;84.78;97668.13;5024213;28;20655;-63
2021/09/26 02:03:00;;;;;;;3.70;3.40;;;;;;;21.96;84.60;97660.44;5030256;28;20311;-62
2021/09/26 02:05:27;;;;;;;3.70;3.40;;;;;;;21.94;84.67;97662.09;5021657;28;20205;-63
2021/09/26 02:07:54;;;;;;;3.50;3.20;;;;;;;21.93;85.08;97658.66;5021327;28;20204;-63
2021/09/26 02:10:22;;;;;;;3.73;3.43;;;;;;;21.93;85.14;97658.66;5039876;28;20330;-62
2021/09/26 02:12:48;;;;;;;3.50;3.30;;;;;;;21.91;85.33;97655.19;5048095;28;20666;-63
2021/09/26 02:15:17;;;;;;;4.00;3.70;;;;;;;21.91;85.46;97660.31;5014902;28;20204;-64
2021/09/26 02:17:44;;;;;;;3.80;3.50;;;;;;;21.90;85.30;97658.56;5013830;28;20208;-63
2021/09/26 02:20:12;;;;;;;3.50;3.20;;;;;;;21.91;85.47;97655.19;5012117;28;20236;-63
2021/09/26 02:22:38;;;;;;;3.80;3.50;;;;;;;21.88;85.35;97647.44;5012564;28;20732;-62
2021/09/26 02:25:07;;;;;;;3.83;3.53;;;;;;;21.91;85.11;97652.63;5027805;28;20303;-61
2021/09/26 02:27:34;;;;;;;3.33;3.03;;;;;;;21.92;85.13;97648.38;5035975;28;20192;-63
2021/09/26 02:30:00;;;;;;;3.77;3.47;;;;;;;21.91;85.16;97649.19;5020885;28;20196;-63
2021/09/26 02:32:27;;;;;;;3.90;3.60;;;;;;;21.92;85.22;97640.69;5014733;28;20225;-63
2021/09/26 02:34:53;;;;;;;3.80;3.50;;;;;;;21.91;85.56;97650.09;5016400;28;20192;-63
2021/09/26 02:37:20;;;;;;;3.30;3.10;;;;;;;21.92;84.94;97643.25;5014972;28;20209;-64
2021/09/26 02:39:47;;;;;;;3.70;3.40;;;;;;;21.92;84.91;97640.69;5032255;28;20262;-62
2021/09/26 02:42:32;;;;;;;4.00;3.70;;;;;;;21.91;85.24;97639.84;5060039;28;20279;-63
2021/09/26 02:45:22;;;;;;;4.53;4.13;;;;;;;21.92;85.16;97648.38;5050151;28;20228;-63
2021/09/26 02:48:11;;;;;;;3.20;3.00;;;;;;;21.92;85.11;97648.38;5046499;28;20211;-63
2021/09/26 02:50:39;;;;;;;3.77;3.47;;;;;;;21.92;84.97;97654.38;5039260;28;20197;-63
2021/09/26 02:53:07;;;;;;;3.63;3.33;;;;;;;21.92;85.26;97646.69;5040232;28;20267;-64
2021/09/26 02:55:34;;;;;;;3.80;3.50;;;;;;;21.92;85.04;97633.00;5025022;28;20250;-63
2021/09/26 02:58:01;;;;;;;3.53;3.30;;;;;;;21.78;85.03;97611.25;5040100;28;20232;-62
2021/09/26 03:00:33;;;;;;;3.90;3.60;;;;;;;21.92;84.97;97633.00;5017119;28;20208;-64
2021/09/26 03:03:07;;;;;;;4.17;3.70;;;;;;;21.91;85.19;97644.97;5018433;28;20221;-62
2021/09/26 03:05:35;;;;;;;3.80;3.50;;;;;;;21.92;85.23;97651.81;5020533;28;20295;-63
2021/09/26 03:08:02;;;;;;;3.80;3.50;;;;;;;21.91;84.88;97644.97;5026650;28;20224;-62
2021/09/26 03:10:28;;;;;;;4.20;3.80;;;;;;;21.92;84.99;97645.81;5024932;28;20719;-63
2021/09/26 03:12:55;;;;;;;3.83;3.53;;;;;;;21.85;85.12;97628.56;5020983;28;20290;-63
2021/09/26 03:15:22;;;;;;;3.50;3.20;;;;;;;21.92;85.07;97639.00;5018614;28;20612;-65
2021/09/26 03:17:49;;;;;;;3.77;3.47;;;;;;;21.92;85.17;97639.00;5024943;28;20263;-64
2021/09/26 03:20:15;;;;;;;3.57;3.27;;;;;;;21.91;85.25;97626.16;5024969;28;20205;-65
2021/09/26 03:22:42;;;;;;;4.27;3.90;;;;;;;21.92;85.09;97631.34;5015952;28;20716;-63
2021/09/26 03:25:09;;;;;;;4.17;3.87;;;;;;;21.86;85.19;97625.16;5029782;28;20220;-63
2021/09/26 03:27:36;;;;;;;3.87;3.57;;;;;;;21.93;85.18;97639.88;5018062;28;20200;-65
2021/09/26 03:30:03;;;;;;;3.40;3.20;;;;;;;21.93;85.01;97627.09;5064328;28;20205;-65
2021/09/26 03:32:30;;;;;;;3.60;3.33;;;;;;;21.92;85.40;97631.34;5033041;28;20220;-64
2021/09/26 03:34:56;;;;;;;4.00;3.70;;;;;;;21.93;85.17;97629.66;5018743;28;20653;-63
2021/09/26 03:37:23;;;;;;;3.90;3.60;;;;;;;21.93;85.26;97633.06;5024450;28;20657;-63
2021/09/26 03:39:51;;;;;;;4.10;3.80;;;;;;;21.92;84.97;97628.78;5049314;28;20273;-62
2021/09/26 03:42:17;;;;;;;4.00;3.70;;;;;;;21.86;85.19;97610.69;5015523;28;20208;-64
2021/09/26 03:44:44;;;;;;;4.00;3.70;;;;;;;21.93;85.30;97619.41;5021822;28;20216;-62
2021/09/26 03:47:11;;;;;;;4.27;3.97;;;;;;;21.86;85.10;97604.69;5029564;28;20200;-64
2021/09/26 03:49:37;;;;;;;4.20;3.90;;;;;;;21.93;85.26;97620.25;5013670;28;20258;-63
2021/09/26 03:52:05;;;;;;;3.70;3.40;;;;;;;21.93;85.22;97630.50;5015237;28;20257;-61
2021/09/26 03:54:31;;;;;;;3.77;3.47;;;;;;;21.92;85.03;97618.53;5008154;28;20201;-63
2021/09/26 03:56:58;;;;;;;4.10;3.80;;;;;;;21.91;85.24;97621.06;5020163;28;20567;-63
2021/09/26 03:59:24;;;;;;;4.57;4.17;;;;;;;21.83;85.36;97599.47;5021279;28;20232;-62
2021/09/26 04:01:51;;;;;;;4.37;4.03;;;;;;;21.89;85.69;97612.47;5017168;28;20902;-62
2021/09/26 04:04:19;;;;;;;3.90;3.60;;;;;;;21.90;85.72;97619.34;5020121;28;20643;-63
2021/09/26 04:06:46;;;;;;;4.17;3.87;;;;;;;21.89;85.73;97615.00;5019824;28;20254;-62
2021/09/26 04:09:12;;;;;;;4.57;4.17;;;;;;;21.88;85.68;97613.28;5040781;28;20253;-63
2021/09/26 04:11:39;;;;;;;4.37;4.00;;;;;;;21.88;85.55;97610.72;5045176;28;20279;-63
2021/09/26 04:14:06;;;;;;;4.13;3.73;;;;;;;21.80;85.82;97589.16;5043168;28;20475;-65
2021/09/26 04:16:33;;;;;;;3.90;3.60;;;;;;;21.89;85.63;97597.09;5012250;28;20201;-63
2021/09/26 04:19:00;;;;;;;4.10;3.80;;;;;;;21.89;85.67;97597.09;5018922;28;20211;-63
2021/09/26 04:21:26;;;;;;;3.80;3.50;;;;;;;21.88;85.93;97592.81;5020543;28;20212;-62
2021/09/26 04:23:53;;;;;;;3.97;3.60;;;;;;;21.88;85.62;97596.25;5030095;28;20228;-64
2021/09/26 04:26:20;;;;;;;3.97;3.67;;;;;;;21.82;85.68;97584.97;5018582;28;20209;-63
2021/09/26 04:28:47;;;;;;;4.23;3.90;;;;;;;21.82;85.76;97585.84;5035708;28;20231;-63
2021/09/26 04:31:13;;;;;;;3.80;3.50;;;;;;;21.89;85.61;97599.66;5017345;28;20212;-63
2021/09/26 04:33:40;;;;;;;4.10;3.70;;;;;;;21.90;85.65;97601.41;5018942;28;20288;-63
2021/09/26 04:36:07;;;;;;;4.23;3.87;;;;;;;21.89;85.71;97592.88;5043715;28;20258;-62
2021/09/26 04:38:33;;;;;;;4.30;4.00;;;;;;;21.85;85.42;97588.50;5021001;28;20285;-62
2021/09/26 04:41:00;;;;;;;4.00;3.70;;;;;;;21.89;86.11;97594.53;5029928;28;20246;-64
2021/09/26 04:43:26;;;;;;;3.90;3.60;;;;;;;21.85;85.75;97593.59;5066035;28;20224;-62
2021/09/26 04:45:53;;;;;;;3.90;3.60;;;;;;;21.91;85.75;97600.59;5066117;28;20311;-63
2021/09/26 04:48:20;;;;;;;4.47;4.17;;;;;;;21.91;85.40;97603.16;5034192;28;20228;-63
2021/09/26 04:50:46;;;;;;;4.27;3.97;;;;;;;21.90;85.77;97599.69;5068432;28;20232;-64
2021/09/26 04:53:13;;;;;;;4.13;3.70;;;;;;;21.90;85.74;97598.88;5066803;28;20243;-64
2021/09/26 04:55:40;;;;;;;4.03;3.73;;;;;;;21.91;85.57;97598.03;5030524;28;20193;-62
2021/09/26 04:58:07;;;;;;;3.97;3.67;;;;;;;21.91;86.13;97598.03;5066062;28;20237;-64
2021/09/26 05:00:33;;;;;;;3.93;3.63;;;;;;;21.91;85.59;97592.91;5068843;28;20279;-64
2021/09/26 05:03:00;;;;;;;5.07;4.00;;;;;;;21.88;86.04;97588.59;5044416;28;20231;-60
2021/09/26 05:05:27;;;;;;;3.97;3.67;;;;;;;21.86;85.94;97586.78;5067284;28;20216;-65
2021/09/26 05:07:54;;;;;;;4.43;3.83;;;;;;;21.91;85.56;97600.59;5047236;28;20185;-63
2021/09/26 05:10:21;;;;;;;4.40;4.00;;;;;;;21.91;86.19;97598.03;5044623;28;20279;-63
2021/09/26 05:12:47;;;;;;;4.20;3.90;;;;;;;21.88;85.60;97587.69;5041990;28;20235;-62
2021/09/26 05:15:14;;;;;;;4.20;3.90;;;;;;;21.91;85.24;97585.22;5042305;28;20189;-63
2021/09/26 05:17:41;;;;;;;7.33;3.97;;;;;;;21.92;85.71;97584.41;5061016;28;20684;-63
2021/09/26 05:20:08;;;;;;;4.23;3.77;;;;;;;21.90;83.46;97584.34;5063130;28;20223;-63
2021/09/26 05:22:35;;;;;;;4.53;4.13;;;;;;;21.90;83.67;97596.31;5047721;28;20220;-64
2021/09/26 05:25:01;;;;;;;5.47;4.37;;;;;;;21.91;84.17;97603.16;5059996;28;20235;-62
2021/09/26 05:27:28;;;;;;;4.37;4.07;;;;;;;21.91;84.08;97592.91;5050759;28;20637;-62
2021/09/26 05:29:54;;;;;;;4.10;3.80;;;;;;;21.93;84.16;97601.50;5044984;28;20227;-63
2021/09/26 05:32:21;;;;;;;4.53;4.17;;;;;;;21.76;84.65;97577.97;5068734;28;20277;-63
2021/09/26 05:34:47;;;;;;;4.10;3.80;;;;;;;21.92;84.35;97598.06;5047083;28;20188;-63
2021/09/26 05:37:14;;;;;;;4.30;4.00;;;;;;;21.91;84.87;97600.59;5064261;28;20221;-62
2021/09/26 05:39:41;;;;;;;4.13;3.83;;;;;;;21.93;84.91;97602.34;5063817;28;20197;-62
2021/09/26 05:42:07;;;;;;;4.70;4.10;;;;;;;21.94;84.87;97603.22;5059083;28;20270;-62
2021/09/26 05:44:35;;;;;;;4.40;4.00;;;;;;;21.95;84.69;97597.28;5042407;28;20292;-64
2021/09/26 05:47:01;;;;;;;5.03;4.60;;;;;;;21.94;84.54;97611.78;5069767;28;20221;-62
2021/09/26 05:49:28;;;;;;;4.60;4.20;;;;;;;21.96;84.79;97614.38;5048204;28;20283;-62
2021/09/26 05:51:57;;;;;;;4.40;4.00;;;;;;;21.95;84.95;97607.50;5063364;28;20607;-63
2021/09/26 05:54:23;;;;;;;5.07;4.57;;;;;;;21.94;84.86;97600.66;5045279;28;20300;-63
2021/09/26 05:56:50;;;;;;;4.40;4.00;;;;;;;21.92;85.20;97600.63;5041376;28;20197;-61
2021/09/26 05:59:17;;;;;;;4.80;4.40;;;;;;;21.92;85.04;97595.50;5066508;28;20288;-62
2021/09/26 06:01:43;;;;;;;5.70;4.50;;;;;;;21.90;85.48;97594.59;5062511;28;20224;-63
2021/09/26 06:04:10;;;;;;;5.30;4.80;;;;;;;21.90;85.85;97599.69;5044365;28;20209;-63
2021/09/26 06:06:37;;;;;;;5.33;4.83;;;;;;;21.88;85.36;97596.25;5057724;28;20197;-63
2021/09/26 06:09:03;;;;;;;6.93;4.10;;;;;;;21.91;85.32;97609.13;5061558;28;20279;-64
2021/09/26 06:11:30;;;;;;;4.60;4.20;;;;;;;21.87;85.01;97597.06;5064607;28;20662;-63
2021/09/26 06:13:56;;;;;;;4.90;4.50;;;;;;;21.91;85.47;97609.13;5044443;28;20693;-63
2021/09/26 06:16:23;;;;;;;4.97;4.40;;;;;;;21.89;84.84;97604.78;5061418;28;20189;-62
2021/09/26 06:18:50;;;;;;;8.33;4.70;;;;;;;21.93;85.18;97609.19;5049505;28;20290;-63
2021/09/26 06:21:16;;;;;;;4.53;4.13;;;;;;;21.84;85.07;97589.28;5044815;28;20232;-62
2021/09/26 06:23:43;;;;;;;5.00;4.60;;;;;;;21.95;85.02;97612.63;5049301;28;20250;-63
2021/09/26 06:26:09;;;;;;;4.73;4.33;;;;;;;21.96;85.02;97611.84;5060101;28;20240;-63
2021/09/26 06:28:36;;;;;;;5.10;4.60;;;;;;;21.93;85.09;97609.19;5068332;28;20283;-62
2021/09/26 06:31:02;;;;;;;5.00;4.60;;;;;;;21.93;84.67;97611.75;5067968;28;20291;-63
2021/09/26 06:33:29;;;;;;;4.73;4.33;;;;;;;21.96;85.05;97617.78;5039331;28;20219;-63
2021/09/26 06:35:57;;;;;;;5.43;4.57;;;;;;;21.91;84.97;97608.25;5061951;28;21072;-62
2021/09/26 06:38:24;;;;;;;5.43;4.83;;;;;;;21.96;84.71;97622.06;5041148;28;20611;-63
2021/09/26 06:40:50;;;;;;;7.10;6.40;;;;;;;21.93;85.59;97622.81;5062513;28;20662;-62
2021/09/26 06:43:17;;;;;;;7.03;6.40;;;;;;;21.89;85.87;97613.34;5062852;28;20795;-63
2021/09/26 06:45:44;;;;;;;7.83;6.67;;;;;;;21.93;85.83;97624.53;5055964;28;20255;-64
2021/09/26 06:48:10;;;;;;;7.33;6.63;;;;;;;21.92;86.22;97625.34;5063609;28;20245;-63
2021/09/26 06:50:37;;;;;;;7.00;6.37;;;;;;;21.91;86.07;97634.72;5011063;28;20639;-63
2021/09/26 06:53:04;;;;;;;6.60;6.00;;;;;;;21.91;85.93;97638.97;5014981;28;20297;-63
2021/09/26 06:55:31;;;;;;;6.50;5.90;;;;;;;21.90;85.80;97638.09;5016828;28;20253;-63
2021/09/26 06:57:57;;;;;;;6.00;5.43;;;;;;;21.91;86.00;97633.84;4998337;28;20605;-64
2021/09/26 07:00:24;;;;;;;5.97;5.47;;;;;;;21.91;85.59;97646.66;5023257;28;20220;-65
2021/09/26 07:02:52;;;;;;;6.47;5.77;;;;;;;21.85;85.55;97636.22;5002414;28;20229;-62
2021/09/26 07:05:19;;;;;;;6.00;5.40;;;;;;;21.92;85.79;97649.25;5008677;28;20239;-62
2021/09/26 07:07:48;;;;;;;5.70;5.20;;;;;;;21.85;85.58;97626.00;4996534;28;20208;-63
2021/09/26 07:10:14;;;;;;;6.00;5.13;;;;;;;21.92;85.62;97646.69;4997096;28;20197;-63
2021/09/26 07:12:41;;;;;;;5.53;5.03;;;;;;;21.92;85.39;97648.38;5007797;28;20298;-62
2021/09/26 07:15:08;;;;;;;5.53;5.03;;;;;;;21.91;85.56;97644.97;5015689;28;20650;-62
2021/09/26 07:17:35;;;;;;;5.63;5.23;;;;;;;21.92;85.31;97645.81;5007611;28;20227;-63
2021/09/26 07:20:01;;;;;;;5.87;5.27;;;;;;;21.92;85.70;97646.69;5008445;28;20438;-63
2021/09/26 07:22:28;;;;;;;6.03;5.33;;;;;;;21.92;85.00;97638.13;5004995;28;20227;-63
2021/09/26 07:24:56;;;;;;;5.87;5.27;;;;;;;21.87;85.43;97624.34;4999756;28;20286;-62
2021/09/26 07:27:23;;;;;;;5.33;4.83;;;;;;;21.92;85.45;97633.88;5025634;28;20220;-63
2021/09/26 07:29:50;;;;;;;5.80;5.30;;;;;;;21.92;85.33;97633.00;5049609;28;20842;-63
2021/09/26 07:32:17;;;;;;;8.50;5.43;;;;;;;21.92;85.53;97635.56;5031922;28;20641;-63
2021/09/26 07:34:43;;;;;;;6.27;5.67;;;;;;;21.90;85.05;97635.53;5030138;28;20589;-63
2021/09/26 07:37:10;;;;;;;5.37;4.87;;;;;;;21.86;85.61;97633.72;5047541;28;20192;-64
2021/09/26 07:39:37;;;;;;;6.10;5.57;;;;;;;21.92;85.58;97643.25;5027603;28;20192;-63
2021/09/26 07:42:04;;;;;;;5.63;5.13;;;;;;;21.92;85.59;97648.38;5033303;28;20227;-63
2021/09/26 07:44:31;;;;;;;5.50;5.00;;;;;;;21.91;85.80;97633.84;5022433;28;20213;-62
2021/09/26 07:46:58;;;;;;;9.93;5.33;;;;;;;21.89;85.48;97636.38;5008488;28;20205;-63
2021/09/26 07:49:24;;;;;;;5.23;4.83;;;;;;;21.89;85.59;97644.03;4995342;28;20200;-63
2021/09/26 07:51:51;;;;;;;5.73;4.90;;;;;;;21.89;85.50;97638.91;5010291;28;20240;-63
2021/09/26 07:54:20;;;;;;;5.53;5.03;;;;;;;21.88;85.44;97644.00;5035835;28;20289;-62
2021/09/26 07:56:47;;;;;;;5.87;5.10;;;;;;;21.87;85.85;97638.00;5015204;28;20216;-65
2021/09/26 07:59:14;;;;;;;6.40;5.17;;;;;;;21.89;85.73;97641.47;5016702;28;20208;-63
2021/09/26 08:01:41;;;;;;;7.13;5.50;;;;;;;21.88;85.80;97634.63;5011874;28;20200;-63
2021/09/26 08:04:08;;;;;;;5.87;5.27;;;;;;;21.88;85.54;97629.53;5008282;28;20658;-64
2021/09/26 08:06:34;;;;;;;5.83;5.33;;;;;;;21.81;85.61;97616.47;5013420;28;20243;-63
2021/09/26 08:09:01;;;;;;;5.87;5.37;;;;;;;21.89;85.37;97622.69;5020225;28;20213;-64
2021/09/26 08:11:28;;;;;;;6.33;5.40;;;;;;;21.89;85.68;97627.81;5013805;28;20209;-65
2021/09/26 08:13:55;;;;;;;6.10;5.50;;;;;;;21.89;85.54;97631.25;5015961;28;20297;-63
2021/09/26 08:16:21;;;;;;;5.97;5.37;;;;;;;21.90;85.68;97634.69;5017662;28;20204;-63
2021/09/26 08:18:48;;;;;;;5.77;5.27;;;;;;;21.90;85.66;97637.25;5019060;28;20588;-63
2021/09/26 08:21:15;;;;;;;5.63;5.13;;;;;;;21.89;85.60;97633.81;5016548;28;20204;-63
2021/09/26 08:23:42;;;;;;;5.90;5.40;;;;;;;21.90;85.58;97637.25;5031096;28;20243;-62
2021/09/26 08:26:09;;;;;;;6.00;5.50;;;;;;;21.90;85.74;97632.97;5016236;28;20595;-64
2021/09/26 08:28:36;;;;;;;5.53;5.03;;;;;;;21.91;85.56;97631.28;5014985;28;20720;-63
2021/09/26 08:31:02;;;;;;;5.53;5.03;;;;;;;21.91;85.66;97626.16;5022713;28;20450;-63
2021/09/26 08:33:29;;;;;;;5.57;5.07;;;;;;;21.83;85.67;97620.84;5011834;28;20231;-63
2021/09/26 08:35:56;;;;;;;5.37;4.80;;;;;;;21.91;85.46;97632.16;5020937;28;20188;-62
2021/09/26 08:38:26;;;;;;;5.07;4.60;;;;;;;21.91;85.48;97628.72;5030532;28;20212;-63
2021/09/26 08:40:52;;;;;;;5.57;5.07;;;;;;;21.91;85.55;97631.28;5012251;28;21057;-62
2021/09/26 08:43:19;;;;;;;5.10;4.70;;;;;;;21.84;85.55;97614.88;5013381;28;20622;-63
2021/09/26 08:45:46;;;;;;;5.37;4.97;;;;;;;21.89;85.75;97621.00;5006442;28;20294;-64
2021/09/26 08:48:12;;;;;;;5.03;4.63;;;;;;;21.90;85.60;97621.88;5033871;28;20205;-63
2021/09/26 08:50:39;;;;;;;5.43;5.00;;;;;;;21.89;85.67;97622.69;5034597;28;20205;-64
2021/09/26 08:53:06;;;;;;;5.63;5.03;;;;;;;21.84;85.32;97619.16;5024389;28;20228;-63
2021/09/26 08:55:33;;;;;;;5.57;5.07;;;;;;;21.81;85.62;97611.34;5033911;28;20200;-63
2021/09/26 08:58:00;;;;;;;5.53;4.90;;;;;;;21.87;85.80;97624.34;5033811;28;20258;-63
2021/09/26 09:00:27;;;;;;;5.10;4.70;;;;;;;21.87;85.63;97625.19;5021408;28;20232;-63
2021/09/26 09:02:54;;;;;;;5.67;5.27;;;;;;;21.86;85.62;97623.47;5021640;28;20216;-63
2021/09/26 09:05:33;;;;;;;5.67;4.77;;;;;;;21.87;85.90;97629.47;5030462;28;20275;-62
2021/09/26 09:08:03;;;;;;;5.20;4.80;;;;;;;21.87;85.82;97629.47;5047997;28;20472;-63
2021/09/26 09:10:52;;;;;;;5.17;4.73;;;;;;;21.87;85.93;97635.44;5065762;28;20196;-63
2021/09/26 09:13:49;;;;;;;5.17;4.70;;;;;;;21.87;85.86;97645.66;5028534;28;20279;-63
2021/09/26 09:16:16;;;;;;;5.40;4.90;;;;;;;21.87;85.86;97649.94;5012512;28;20193;-63
2021/09/26 09:18:54;;;;;;;5.60;5.10;;;;;;;21.81;85.70;97642.06;5019794;28;20259;-63
2021/09/26 09:21:27;;;;;;;5.57;5.03;;;;;;;21.87;85.69;97645.66;5021116;28;20200;-63
2021/09/26 09:24:27;;;;;;;5.30;4.80;;;;;;;21.88;85.86;97641.44;5070146;23;20231;-68
2021/09/26 09:26:54;;;;;;;5.17;4.67;;;;;;;21.88;85.72;97626.09;5033932;28;20228;-68
2021/09/26 09:29:23;;;;;;;5.03;4.63;;;;;;;21.87;85.63;97635.44;5018799;28;20612;-71
2021/09/26 09:31:55;;;;;;;4.80;4.40;;;;;;;21.83;85.79;97631.06;5020724;28;20658;-71
2021/09/26 09:34:31;;;;;;;5.37;4.87;;;;;;;21.87;85.71;97640.56;5020615;28;20251;-71
2021/09/26 09:37:14;;;;;;;5.27;4.60;;;;;;;21.89;85.55;97638.03;5016315;28;20193;-71
2021/09/26 09:39:41;;;;;;;4.70;4.30;;;;;;;21.88;85.80;97634.63;5017102;28;20721;-73
2021/09/26 09:42:18;;;;;;;4.83;4.43;;;;;;;21.89;85.70;97632.94;5049410;28;20224;-71
2021/09/26 09:44:45;;;;;;;5.00;4.60;;;;;;;21.87;85.80;97637.16;5034428;28;20247;-73
2021/09/26 09:47:11;;;;;;;4.80;4.40;;;;;;;21.82;85.80;97631.91;5051245;28;20225;-71
2021/09/26 09:49:51;;;;;;;5.10;4.70;;;;;;;21.87;85.74;97645.66;5020658;28;20296;-70
2021/09/26 09:52:18;;;;;;;5.13;4.73;;;;;;;21.87;86.33;97649.94;5044839;28;20231;-70
2021/09/26 09:54:44;;;;;;;5.00;4.60;;;;;;;21.86;85.97;97643.94;5037223;28;20308;-71
2021/09/26 09:57:18;;;;;;;4.80;4.30;;;;;;;21.83;85.95;97628.50;5021728;28;20224;-70
2021/09/26 09:59:46;;;;;;;4.70;4.30;;;;;;;21.82;85.78;97628.47;5032443;28;20224;-70
2021/09/26 10:02:16;;;;;;;5.03;4.63;;;;;;;21.85;85.93;97629.44;5036050;28;20232;-71
2021/09/26 10:04:45;;;;;;;4.93;4.53;;;;;;;21.87;85.95;97642.28;5052048;28;20624;-70
2021/09/26 10:07:21;;;;;;;4.77;4.30;;;;;;;21.78;85.61;97637.72;5032446;28;20235;-70
2021/09/26 10:09:49;;;;;;;4.80;4.30;;;;;;;21.75;85.65;97635.06;5016559;28;20219;-71
2021/09/26 10:12:33;;;;;;;4.47;4.17;;;;;;;21.86;85.83;97648.19;5014503;28;20225;-71
2021/09/26 10:15:01;;;;;;;5.17;4.70;;;;;;;21.66;85.84;97614.31;5052398;28;20229;-70
2021/09/26 10:17:28;;;;;;;4.97;4.57;;;;;;;21.78;85.54;97637.72;5014720;28;20647;-71
2021/09/26 10:19:55;;;;;;;4.70;4.30;;;;;;;21.79;85.92;97641.16;5050736;28;20687;-71
2021/09/26 10:22:21;;;;;;;4.30;4.00;;;;;;;21.86;85.94;97661.84;5027582;28;20247;-72
2021/09/26 10:24:53;;;;;;;5.13;4.70;;;;;;;21.80;85.87;97640.31;5033948;28;20705;-71
2021/09/26 10:27:22;;;;;;;4.70;4.30;;;;;;;21.81;85.80;97636.94;5035336;28;20621;-70
2021/09/26 10:29:50;;;;;;;4.83;4.43;;;;;;;21.85;85.90;97642.22;5050087;28;20193;-70
2021/09/26 10:32:16;;;;;;;4.73;4.33;;;;;;;21.85;85.79;97637.09;5032394;28;20205;-70
2021/09/26 10:34:43;;;;;;;5.37;4.87;;;;;;;21.87;85.68;97635.44;5030948;28;20278;-71
2021/09/26 10:37:12;;;;;;;4.47;4.07;;;;;;;21.71;85.86;97612.75;5051734;28;20193;-70
2021/09/26 10:39:40;;;;;;;6.43;4.57;;;;;;;21.89;85.59;97648.28;5025848;28;20898;-70
2021/09/26 10:42:14;;;;;;;4.50;4.20;;;;;;;21.09;85.75;97521.38;5015717;28;20297;-73
2021/09/26 10:44:49;;;;;;;5.07;4.67;;;;;;;21.81;85.70;97642.06;5031791;28;20304;-70
2021/09/26 10:47:22;;;;;;;5.00;4.60;;;;;;;21.88;85.83;97649.13;5016007;28;20235;-71
2021/09/26 10:50:16;;;;;;;4.73;4.33;;;;;;;21.88;85.77;97656.78;5048456;28;20235;-71
2021/09/26 10:52:50;;;;;;;4.20;3.90;;;;;;;21.87;85.97;97660.19;5032666;28;20197;-73
2021/09/26 10:57:46;;;;;;;4.77;4.37;;;;;;;21.75;86.03;97640.19;5049379;28;20653;-72
2021/09/26 11:00:13;;;;;;;5.73;4.43;;;;;;;21.83;85.88;97658.31;5008406;28;20583;-72
2021/09/26 11:02:44;;;;;;;9.10;4.60;;;;;;;21.75;85.90;97650.41;5032130;28;20217;-71
2021/09/26 11:05:32;;;;;;;4.90;4.50;;;;;;;21.87;85.93;97672.97;5025401;28;20283;-71
2021/09/26 11:07:59;;;;;;;4.97;4.47;;;;;;;21.73;85.87;97646.91;5048366;28;20276;-71
2021/09/26 11:10:43;;;;;;;5.20;4.40;;;;;;;21.86;85.90;97663.53;5022435;28;20235;-70
2021/09/26 11:13:15;;;;;;;5.90;4.53;;;;;;;21.75;85.81;97645.31;5049331;28;20229;-70
2021/09/26 11:16:10;;;;;;;5.50;4.83;;;;;;;21.86;85.81;97654.19;5034353;28;20218;-71
2021/09/26 11:18:49;;;;;;;5.63;4.63;;;;;;;21.86;85.81;97635.38;5048897;28;20292;-72
2021/09/26 11:21:37;;;;;;;7.43;5.13;;;;;;;21.87;85.93;97637.16;5031195;28;20224;-70
2021/09/26 11:24:10;;;;;;;6.00;5.03;;;;;;;21.86;85.73;97631.16;5049173;28;20581;-71
2021/09/26 11:27:04;;;;;;;6.77;5.07;;;;;;;21.88;85.93;97623.53;5033890;28;20629;-73
2021/09/26 11:29:37;;;;;;;8.90;5.53;;;;;;;21.87;85.80;97622.66;5030018;28;20193;-71
2021/09/26 11:32:10;;;;;;;7.13;5.47;;;;;;;21.65;85.68;97584.44;5051412;28;20193;-72
2021/09/26 11:34:44;;;;;;;8.43;5.30;;;;;;;21.87;85.90;97622.66;5032774;28;20303;-70
2021/09/26 11:37:11;;;;;;;8.30;5.63;;;;;;;21.65;85.60;97572.50;5028003;28;20217;-71
2021/09/26 11:39:39;;;;;;;13.07;5.90;;;;;;;21.34;85.84;97513.59;5020031;28;20221;-73
2021/09/26 11:42:28;;;;;;;10.87;5.80;;;;;;;21.88;85.78;97611.59;5032317;28;20603;-71
2021/09/26 11:44:55;;;;;;;12.37;6.27;;;;;;;21.13;85.75;97482.31;5031474;28;20243;-72